createdAt,value
2022-10-01T00:02:21.375Z,14.63
2022-10-01T00:04:48.899Z,14.64
2022-10-01T00:07:17.255Z,14.65
2022-10-01T00:09:46.953Z,14.66
2022-10-01T00:12:17.092Z,14.67
2022-10-01T00:14:44.859Z,14.68
2022-10-01T00:17:12.733Z,14.66
2022-10-01T00:19:42.349Z,14.67
2022-10-01T00:22:11.324Z,14.68
2022-10-01T00:24:38.792Z,14.69
2022-10-01T00:27:07.372Z,14.67
2022-10-01T00:29:36.791Z,14.65
2022-10-01T00:32:05.414Z,14.65
2022-10-01T00:34:34.372Z,14.63
2022-10-01T00:37:04.913Z,14.61
2022-10-01T00:39:32.500Z,14.63
2022-10-01T00:42:00.275Z,14.64
2022-10-01T00:44:37.789Z,14.62
2022-10-01T00:47:18.243Z,14.62
2022-10-01T00:49:47.543Z,14.62
2022-10-01T00:52:23.039Z,14.63
2022-10-01T00:54:56.147Z,14.60
2022-10-01T00:57:27.212Z,14.60
2022-10-01T00:59:57.810Z,14.61
2022-10-01T01:02:28.553Z,14.53
2022-10-01T01:04:56.722Z,14.55
2022-10-01T01:07:25.006Z,14.52
2022-10-01T01:09:57.427Z,14.50
2022-10-01T01:12:56.067Z,14.50
2022-10-01T01:15:27.288Z,14.48
2022-10-01T01:18:22.656Z,14.48
2022-10-01T01:21:15.908Z,14.48
2022-10-01T01:24:08.877Z,14.47
2022-10-01T01:27:09.518Z,14.46
2022-10-01T01:30:10.964Z,14.48
2022-10-01T01:32:54.166Z,14.52
2022-10-01T01:35:32.107Z,14.56
2022-10-01T01:38:21.678Z,14.65
2022-10-01T01:40:53.182Z,14.67
2022-10-01T01:43:31.606Z,14.66
2022-10-01T01:46:04.711Z,14.62
2022-10-01T01:48:36.816Z,14.53
2022-10-01T01:51:17.407Z,14.55
2022-10-01T01:53:45.588Z,14.49
2022-10-01T01:56:14.797Z,14.46
2022-10-01T01:58:52.471Z,14.42
2022-10-01T02:01:45.319Z,14.49
2022-10-01T02:04:37.295Z,14.50
2022-10-01T02:07:35.403Z,14.47
2022-10-01T02:10:24.812Z,14.44
2022-10-01T02:13:07.387Z,14.41
2022-10-01T02:15:55.526Z,14.38
2022-10-01T02:18:54.789Z,14.35
2022-10-01T02:21:38.971Z,14.29
2022-10-01T02:24:23.065Z,14.27
2022-10-01T02:26:54.630Z,14.25
2022-10-01T02:29:25.439Z,14.26
2022-10-01T02:31:57.751Z,14.26
2022-10-01T02:34:29.378Z,14.23
2022-10-01T02:37:01.510Z,14.23
2022-10-01T02:39:34.070Z,14.22
2022-10-01T02:42:04.422Z,14.19
2022-10-01T02:44:39.965Z,14.17
2022-10-01T02:47:21.524Z,14.08
2022-10-01T02:49:52.048Z,14.10
2022-10-01T02:52:42.219Z,14.09
2022-10-01T02:55:13.589Z,14.05
2022-10-01T02:57:42.733Z,14.02
2022-10-01T03:00:22.010Z,13.98
2022-10-01T03:02:50.712Z,13.92
2022-10-01T03:05:38.543Z,13.93
2022-10-01T03:08:07.348Z,13.90
2022-10-01T03:10:36.014Z,13.90
2022-10-01T03:13:07.845Z,13.90
2022-10-01T03:15:35.380Z,13.91
2022-10-01T03:18:02.875Z,13.94
2022-10-01T03:20:31.396Z,13.99
2022-10-01T03:22:58.829Z,14.10
2022-10-01T03:25:26.620Z,14.27
2022-10-01T03:27:55.364Z,14.42
2022-10-01T03:30:26.309Z,14.47
2022-10-01T03:32:53.766Z,14.59
2022-10-01T03:35:21.496Z,14.80
2022-10-01T03:37:49.636Z,15.12
2022-10-01T03:40:17.472Z,15.42
2022-10-01T03:42:46.419Z,15.56
2022-10-01T03:45:15.137Z,15.70
2022-10-01T03:47:45.094Z,15.87
2022-10-01T03:50:14.188Z,16.06
2022-10-01T03:52:43.998Z,16.25
2022-10-01T03:55:11.770Z,16.62
2022-10-01T03:57:39.243Z,17.09
2022-10-01T04:00:10.349Z,17.57
2022-10-01T04:02:40.518Z,17.92
2022-10-01T04:05:09.206Z,18.10
2022-10-01T04:07:36.737Z,18.19
2022-10-01T04:10:04.669Z,18.37
2022-10-01T04:12:32.132Z,18.68
2022-10-01T04:14:59.685Z,19.15
2022-10-01T04:17:30.496Z,19.63
2022-10-01T04:20:00.557Z,19.96
2022-10-01T04:22:29.355Z,20.16
2022-10-01T04:24:59.112Z,20.39
2022-10-01T04:27:27.273Z,20.63
2022-10-01T04:29:57.027Z,20.75
2022-10-01T04:32:24.731Z,20.92
2022-10-01T04:34:54.132Z,21.09
2022-10-01T04:37:24.283Z,21.27
2022-10-01T04:39:51.955Z,21.72
2022-10-01T04:42:22.673Z,22.25
2022-10-01T04:44:51.887Z,22.80
2022-10-01T04:47:19.294Z,23.24
2022-10-01T04:49:49.299Z,23.34
2022-10-01T04:52:19.587Z,23.46
2022-10-01T04:54:47.492Z,23.59
2022-10-01T04:57:14.933Z,23.73
2022-10-01T04:59:42.529Z,23.85
2022-10-01T05:02:10.454Z,24.16
2022-10-01T05:04:38.438Z,24.41
2022-10-01T05:07:07.685Z,24.62
2022-10-01T05:09:35.418Z,24.67
2022-10-01T05:12:03.109Z,24.72
2022-10-01T05:14:31.579Z,24.97
2022-10-01T05:17:00.510Z,25.11
2022-10-01T05:19:32.813Z,24.92
2022-10-01T05:22:00.593Z,24.72
2022-10-01T05:24:30.022Z,24.57
2022-10-01T05:26:58.159Z,24.38
2022-10-01T05:29:26.189Z,24.13
2022-10-01T05:31:54.681Z,23.78
2022-10-01T05:34:22.911Z,23.38
2022-10-01T05:36:55.750Z,23.32
2022-10-01T05:39:23.838Z,23.35
2022-10-01T05:41:56.812Z,23.36
2022-10-01T05:44:25.619Z,23.49
2022-10-01T05:46:54.453Z,23.49
2022-10-01T05:49:27.106Z,23.48
2022-10-01T05:51:54.554Z,23.62
2022-10-01T05:54:23.487Z,23.71
2022-10-01T05:56:51.748Z,23.67
2022-10-01T05:59:21.040Z,23.75
2022-10-01T06:01:48.692Z,23.83
2022-10-01T06:04:17.105Z,24.17
2022-10-01T06:06:48.101Z,24.42
2022-10-01T06:09:16.098Z,24.59
2022-10-01T06:11:45.467Z,24.84
2022-10-01T06:14:14.291Z,25.25
2022-10-01T06:16:42.049Z,25.89
2022-10-01T06:19:09.909Z,26.57
2022-10-01T06:21:38.224Z,26.88
2022-10-01T06:24:06.109Z,27.46
2022-10-01T06:26:33.577Z,27.79
2022-10-01T06:29:02.436Z,27.91
2022-10-01T06:31:30.872Z,27.47
2022-10-01T06:33:58.433Z,26.96
2022-10-01T06:36:25.957Z,26.53
2022-10-01T06:38:53.474Z,26.27
2022-10-01T06:41:21.010Z,26.30
2022-10-01T06:43:50.027Z,26.06
2022-10-01T06:46:17.538Z,26.08
2022-10-01T06:48:45.018Z,26.65
2022-10-01T06:51:12.539Z,27.47
2022-10-01T06:53:39.954Z,28.26
2022-10-01T06:56:08.244Z,28.71
2022-10-01T06:58:35.793Z,29.12
2022-10-01T07:01:04.782Z,29.66
2022-10-01T07:03:32.458Z,29.90
2022-10-01T07:06:05.123Z,30.24
2022-10-01T07:08:34.615Z,30.14
2022-10-01T07:11:04.029Z,29.63
2022-10-01T07:13:31.509Z,29.22
2022-10-01T07:16:04.122Z,28.90
2022-10-01T07:18:31.720Z,28.77
2022-10-01T07:20:59.265Z,28.52
2022-10-01T07:23:28.485Z,28.66
2022-10-01T07:25:55.987Z,29.45
2022-10-01T07:28:27.236Z,30.28
2022-10-01T07:31:07.034Z,30.80
2022-10-01T07:33:34.787Z,30.88
2022-10-01T07:36:07.409Z,30.81
2022-10-01T07:38:35.870Z,30.90
2022-10-01T07:41:03.882Z,30.90
2022-10-01T07:43:33.198Z,31.07
2022-10-01T07:46:02.270Z,31.27
2022-10-01T07:48:30.115Z,31.39
2022-10-01T07:50:58.119Z,31.85
2022-10-01T07:53:27.095Z,32.26
2022-10-01T07:55:55.093Z,32.47
2022-10-01T07:58:24.416Z,32.79
2022-10-01T08:00:56.376Z,33.09
2022-10-01T08:03:24.649Z,33.07
2022-10-01T08:05:53.914Z,32.85
2022-10-01T08:08:23.928Z,32.84
2022-10-01T08:10:51.514Z,33.05
2022-10-01T08:13:19.017Z,32.61
2022-10-01T08:15:50.825Z,32.03
2022-10-01T08:18:18.318Z,31.82
2022-10-01T08:20:47.106Z,31.33
2022-10-01T08:23:16.600Z,31.70
2022-10-01T08:25:45.929Z,32.11
2022-10-01T08:28:13.603Z,32.27
2022-10-01T08:30:42.786Z,32.34
2022-10-01T08:33:14.482Z,32.06
2022-10-01T08:35:43.890Z,31.69
2022-10-01T08:38:12.702Z,31.31
2022-10-01T08:40:47.611Z,31.44
2022-10-01T08:43:37.961Z,31.64
2022-10-01T08:46:13.972Z,31.83
2022-10-01T08:49:01.890Z,32.14
2022-10-01T08:51:43.727Z,31.99
2022-10-01T08:54:41.369Z,31.54
2022-10-01T08:57:37.687Z,30.92
2022-10-01T09:00:12.530Z,30.64
2022-10-01T09:02:42.270Z,30.18
2022-10-01T09:05:38.294Z,29.82
2022-10-01T09:08:43.973Z,29.25
2022-10-01T09:11:27.767Z,28.82
2022-10-01T09:14:11.817Z,28.73
2022-10-01T09:17:06.345Z,29.06
2022-10-01T09:20:01.724Z,29.59
2022-10-01T09:22:51.825Z,30.06
2022-10-01T09:25:25.229Z,30.49
2022-10-01T09:28:00.572Z,31.00
2022-10-01T09:30:30.515Z,31.33
2022-10-01T09:33:12.308Z,31.61
2022-10-01T09:35:49.140Z,31.94
2022-10-01T09:38:31.566Z,32.11
2022-10-01T09:40:59.808Z,32.05
2022-10-01T09:43:40.467Z,32.09
2022-10-01T09:46:13.818Z,31.73
2022-10-01T09:49:08.695Z,31.36
2022-10-01T09:51:45.413Z,30.92
2022-10-01T09:54:26.727Z,30.62
2022-10-01T09:56:58.774Z,30.37
2022-10-01T09:59:35.199Z,30.15
2022-10-01T10:02:08.613Z,29.77
2022-10-01T10:04:38.863Z,29.43
2022-10-01T10:07:06.540Z,29.53
2022-10-01T10:09:36.153Z,29.85
2022-10-01T10:12:03.979Z,29.94
2022-10-01T10:14:38.395Z,29.83
2022-10-01T10:17:12.087Z,29.81
2022-10-01T10:19:41.506Z,29.81
2022-10-01T10:22:25.157Z,29.58
2022-10-01T10:24:54.368Z,29.41
2022-10-01T10:27:27.092Z,29.04
2022-10-01T10:30:09.096Z,28.81
2022-10-01T10:32:37.002Z,28.65
2022-10-01T10:35:10.822Z,28.49
2022-10-01T10:37:45.516Z,28.21
2022-10-01T10:40:27.043Z,27.97
2022-10-01T10:42:58.891Z,27.78
2022-10-01T10:45:44.238Z,27.87
2022-10-01T10:48:17.346Z,27.90
2022-10-01T10:50:46.577Z,27.79
2022-10-01T10:53:26.200Z,27.51
2022-10-01T10:55:56.375Z,27.23
2022-10-01T10:58:30.313Z,27.22
2022-10-01T11:01:13.853Z,27.25
2022-10-01T11:03:53.613Z,27.30
2022-10-01T11:06:21.201Z,27.32
2022-10-01T11:08:57.963Z,27.43
2022-10-01T11:11:44.088Z,27.55
2022-10-01T11:14:31.652Z,27.33
2022-10-01T11:17:18.850Z,27.12
2022-10-01T11:19:55.765Z,27.05
2022-10-01T11:22:52.751Z,27.12
2022-10-01T11:25:27.434Z,27.24
2022-10-01T11:28:05.032Z,27.18
2022-10-01T11:30:54.547Z,26.89
2022-10-01T11:33:58.108Z,26.63
2022-10-01T11:36:55.446Z,26.45
2022-10-01T11:39:27.760Z,26.29
2022-10-01T11:42:20.099Z,26.18
2022-10-01T11:44:57.428Z,26.16
2022-10-01T11:47:37.018Z,26.13
2022-10-01T11:50:19.286Z,26.08
2022-10-01T11:53:07.039Z,26.08
2022-10-01T11:56:00.150Z,25.97
2022-10-01T11:58:53.206Z,25.77
2022-10-01T12:01:40.340Z,25.68
2022-10-01T12:04:14.609Z,25.61
2022-10-01T12:07:06.390Z,25.62
2022-10-01T12:09:53.965Z,25.64
2022-10-01T12:12:28.259Z,25.68
2022-10-01T12:15:17.128Z,25.76
2022-10-01T12:18:06.900Z,25.77
2022-10-01T12:20:43.812Z,25.59
2022-10-01T12:23:22.167Z,25.57
2022-10-01T12:26:01.958Z,25.61
2022-10-01T12:28:53.600Z,25.52
2022-10-01T12:31:35.190Z,25.47
2022-10-01T12:34:23.070Z,25.36
2022-10-01T12:37:22.053Z,25.36
2022-10-01T12:40:08.504Z,25.38
2022-10-01T12:42:49.930Z,25.34
2022-10-01T12:45:45.591Z,25.29
2022-10-01T12:48:39.767Z,25.21
2022-10-01T12:51:44.403Z,25.20
2022-10-01T12:54:50.894Z,25.11
2022-10-01T12:57:37.141Z,25.04
2022-10-01T13:00:20.077Z,24.98
2022-10-01T13:03:17.836Z,24.89
2022-10-01T13:06:06.582Z,24.73
2022-10-01T13:08:43.303Z,24.62
2022-10-01T13:11:36.635Z,24.54
2022-10-01T13:14:07.490Z,24.49
2022-10-01T13:16:44.094Z,24.44
2022-10-01T13:19:18.611Z,24.46
2022-10-01T13:22:17.444Z,24.47
2022-10-01T13:25:21.473Z,24.45
2022-10-01T13:28:12.008Z,24.41
2022-10-01T13:31:01.692Z,24.40
2022-10-01T13:33:32.417Z,24.35
2022-10-01T13:36:02.226Z,24.30
2022-10-01T13:38:41.006Z,24.26
2022-10-01T13:41:25.698Z,24.18
2022-10-01T13:43:59.523Z,24.07
2022-10-01T13:46:31.456Z,23.99
2022-10-01T13:49:21.654Z,23.93
2022-10-01T13:51:49.075Z,23.87
2022-10-01T13:54:37.591Z,23.81
2022-10-01T13:57:22.901Z,23.70
2022-10-01T14:00:00.037Z,23.61
2022-10-01T14:02:39.778Z,23.53
2022-10-01T14:05:26.089Z,23.43
2022-10-01T14:07:59.330Z,23.29
2022-10-01T14:10:56.729Z,23.27
2022-10-01T14:13:45.369Z,23.18
2022-10-01T14:16:14.387Z,23.10
2022-10-01T14:18:45.272Z,23.00
2022-10-01T14:22:00.328Z,22.94
2022-10-01T14:24:42.047Z,22.87
2022-10-01T14:27:39.189Z,22.78
2022-10-01T14:30:13.676Z,22.69
2022-10-01T14:33:18.444Z,22.62
2022-10-01T14:36:06.984Z,22.52
2022-10-01T14:38:34.843Z,22.42
2022-10-01T14:41:02.379Z,22.38
2022-10-01T14:43:31.765Z,22.27
2022-10-01T14:46:19.014Z,22.25
2022-10-01T14:48:58.124Z,22.18
2022-10-01T14:51:28.555Z,22.09
2022-10-01T14:53:59.247Z,22.06
2022-10-01T14:56:28.495Z,22.00
2022-10-01T14:59:03.031Z,21.95
2022-10-01T15:01:31.797Z,21.86
2022-10-01T15:03:59.298Z,21.80
2022-10-01T15:06:30.242Z,21.73
2022-10-01T15:09:12.845Z,21.68
2022-10-01T15:11:44.482Z,21.61
2022-10-01T15:14:19.424Z,21.55
2022-10-01T15:16:47.464Z,21.49
2022-10-01T15:19:20.890Z,21.45
2022-10-01T15:21:54.789Z,21.40
2022-10-01T15:24:37.099Z,21.37
2022-10-01T15:27:07.106Z,21.30
2022-10-01T15:29:35.758Z,21.26
2022-10-01T15:32:04.383Z,21.18
2022-10-01T15:34:32.817Z,21.14
2022-10-01T15:37:01.253Z,21.09
2022-10-01T15:39:37.799Z,21.03
2022-10-01T15:42:20.854Z,20.98
2022-10-01T15:44:50.257Z,20.91
2022-10-01T15:47:21.172Z,20.88
2022-10-01T15:50:18.740Z,20.79
2022-10-01T15:52:52.287Z,20.77
2022-10-01T15:55:24.096Z,20.68
2022-10-01T15:57:57.646Z,20.65
2022-10-01T16:00:31.635Z,20.63
2022-10-01T16:02:59.471Z,20.59
2022-10-01T16:05:31.790Z,20.54
2022-10-01T16:07:59.293Z,20.50
2022-10-01T16:10:34.897Z,20.46
2022-10-01T16:13:32.105Z,20.41
2022-10-01T16:16:15.368Z,20.39
2022-10-01T16:18:43.889Z,20.34
2022-10-01T16:21:12.151Z,20.27
2022-10-01T16:23:50.147Z,20.25
2022-10-01T16:26:34.698Z,20.19
2022-10-01T16:29:25.697Z,20.17
2022-10-01T16:31:53.640Z,20.12
2022-10-01T16:34:21.373Z,19.99
2022-10-01T16:36:49.130Z,20.02
2022-10-01T16:39:16.875Z,19.95
2022-10-01T16:42:06.161Z,19.92
2022-10-01T16:44:40.312Z,19.86
2022-10-01T16:47:10.481Z,19.82
2022-10-01T16:49:39.113Z,19.78
2022-10-01T16:52:06.744Z,19.75
2022-10-01T16:54:34.578Z,19.71
2022-10-01T16:57:04.887Z,19.67
2022-10-01T16:59:34.006Z,19.64
2022-10-01T17:02:02.606Z,19.63
2022-10-01T17:04:34.038Z,19.60
2022-10-01T17:07:02.004Z,19.57
2022-10-01T17:09:29.590Z,19.48
2022-10-01T17:11:58.248Z,19.50
2022-10-01T17:14:25.739Z,19.49
2022-10-01T17:16:53.779Z,19.45
2022-10-01T17:19:22.247Z,19.42
2022-10-01T17:21:49.676Z,19.35
2022-10-01T17:24:19.460Z,19.33
2022-10-01T17:26:47.366Z,19.30
2022-10-01T17:29:17.427Z,19.27
2022-10-01T17:31:46.800Z,19.22
2022-10-01T17:34:15.109Z,19.19
2022-10-01T17:36:42.571Z,19.13
2022-10-01T17:39:10.061Z,19.11
2022-10-01T17:41:37.685Z,19.08
2022-10-01T17:44:05.085Z,19.04
2022-10-01T17:46:35.602Z,19.05
2022-10-01T17:49:03.292Z,19.02
2022-10-01T17:51:30.843Z,18.97
2022-10-01T17:54:00.014Z,18.94
2022-10-01T17:56:27.548Z,18.89
2022-10-01T17:58:55.171Z,18.85
2022-10-01T18:01:23.019Z,18.81
2022-10-01T18:04:00.465Z,18.78
2022-10-01T18:06:27.946Z,18.71
2022-10-01T18:08:56.472Z,18.68
2022-10-01T18:11:27.474Z,18.65
2022-10-01T18:13:55.030Z,18.59
2022-10-01T18:16:23.030Z,18.54
2022-10-01T18:21:49.232Z,18.41
2022-10-01T18:24:17.151Z,18.34
2022-10-01T18:26:45.996Z,18.27
2022-10-01T18:29:25.144Z,18.22
2022-10-01T18:32:05.308Z,18.16
2022-10-01T18:34:40.594Z,18.10
2022-10-01T18:37:18.275Z,18.03
2022-10-01T18:39:53.291Z,17.96
2022-10-01T18:42:32.895Z,17.89
2022-10-01T18:45:02.709Z,17.83
2022-10-01T18:47:55.124Z,17.79
2022-10-01T18:50:52.758Z,17.71
2022-10-01T18:53:45.335Z,17.64
2022-10-01T18:56:21.543Z,17.56
2022-10-01T18:59:04.199Z,17.53
2022-10-01T19:01:43.468Z,17.49
2022-10-01T19:04:39.031Z,17.48
2022-10-01T19:07:33.638Z,17.45
2022-10-01T19:10:08.419Z,17.44
2022-10-01T19:13:02.094Z,17.43
2022-10-01T19:15:45.279Z,17.42
2022-10-01T19:18:31.124Z,17.40
2022-10-01T19:21:45.520Z,17.38
2022-10-01T19:24:38.539Z,17.36
2022-10-01T19:27:23.955Z,17.36
2022-10-01T19:30:02.972Z,17.35
2022-10-01T19:32:39.919Z,17.32
2022-10-01T19:35:17.431Z,17.34
2022-10-01T19:38:05.902Z,17.34
2022-10-01T19:40:39.167Z,17.32
2022-10-01T19:43:21.510Z,17.32
2022-10-01T19:46:15.412Z,17.33
2022-10-01T19:49:15.385Z,17.34
2022-10-01T19:51:52.308Z,17.37
2022-10-01T19:54:22.725Z,17.39
2022-10-01T19:56:54.689Z,17.38
2022-10-01T19:59:22.907Z,17.41
2022-10-01T20:01:59.184Z,17.45
2022-10-01T20:04:29.363Z,17.47
2022-10-01T20:07:11.839Z,17.49
2022-10-01T20:09:45.782Z,17.50
2022-10-01T20:12:36.436Z,17.51
2022-10-01T20:15:37.846Z,17.51
2022-10-01T20:18:14.868Z,17.52
2022-10-01T20:21:23.538Z,17.50
2022-10-01T20:24:08.288Z,17.48
2022-10-01T20:26:46.889Z,17.43
2022-10-01T20:29:25.848Z,17.38
2022-10-01T20:32:07.038Z,17.31
2022-10-01T20:34:52.873Z,17.26
2022-10-01T20:37:49.085Z,17.16
2022-10-01T20:40:40.873Z,17.12
2022-10-01T20:43:30.954Z,17.05
2022-10-01T20:46:03.474Z,16.97
2022-10-01T20:48:37.172Z,16.94
2022-10-01T20:51:16.216Z,16.83
2022-10-01T20:53:53.734Z,16.81
2022-10-01T20:56:34.013Z,16.72
2022-10-01T20:59:11.812Z,16.64
2022-10-01T21:01:46.571Z,16.58
2022-10-01T21:04:23.400Z,16.44
2022-10-01T21:07:01.454Z,16.46
2022-10-01T21:09:38.666Z,16.41
2022-10-01T21:12:16.240Z,16.34
2022-10-01T21:14:53.908Z,16.36
2022-10-01T21:17:40.490Z,16.32
2022-10-01T21:20:21.262Z,16.27
2022-10-01T21:23:35.384Z,16.23
2022-10-01T21:26:11.192Z,16.17
2022-10-01T21:28:56.798Z,16.10
2022-10-01T21:31:42.945Z,16.08
2022-10-01T21:34:22.701Z,16.05
2022-10-01T21:37:03.734Z,16.01
2022-10-01T21:39:41.093Z,15.96
2022-10-01T21:42:17.286Z,15.93
2022-10-01T21:45:06.458Z,15.96
2022-10-01T21:47:54.170Z,15.90
2022-10-01T21:50:46.815Z,15.95
2022-10-01T21:53:38.366Z,15.97
2022-10-01T21:56:14.353Z,15.96
2022-10-01T21:59:11.109Z,15.96
2022-10-01T22:02:15.088Z,15.95
2022-10-01T22:04:53.034Z,15.93
2022-10-01T22:07:42.454Z,15.94
2022-10-01T22:10:19.404Z,15.95
2022-10-01T22:12:52.187Z,15.96
2022-10-01T22:15:33.405Z,15.99
2022-10-01T22:18:05.088Z,15.99
2022-10-01T22:20:35.260Z,15.99
2022-10-01T22:23:09.429Z,16.02
2022-10-01T22:25:43.328Z,16.03
2022-10-01T22:28:19.004Z,16.05
2022-10-01T22:30:50.272Z,15.98
2022-10-01T22:33:33.137Z,16.06
2022-10-01T22:36:07.259Z,16.04
2022-10-01T22:38:44.731Z,16.02
2022-10-01T22:41:41.214Z,16.03
2022-10-01T22:44:20.532Z,16.00
2022-10-01T22:47:02.008Z,15.97
2022-10-01T22:49:55.077Z,15.96
2022-10-01T22:52:47.078Z,15.92
2022-10-01T22:55:37.201Z,15.85
2022-10-01T22:58:22.391Z,15.78
2022-10-01T23:01:12.402Z,15.74
2022-10-01T23:04:00.035Z,15.71
2022-10-01T23:06:45.651Z,15.66
2022-10-01T23:09:16.302Z,15.63
2022-10-01T23:11:58.759Z,15.61
2022-10-01T23:14:53.759Z,15.57
2022-10-01T23:17:35.316Z,15.54
2022-10-01T23:20:21.167Z,15.54
2022-10-01T23:22:54.904Z,15.51
2022-10-01T23:25:44.321Z,15.51
2022-10-01T23:28:42.217Z,15.51
2022-10-01T23:31:34.823Z,15.53
2022-10-01T23:34:40.558Z,15.52
2022-10-01T23:37:45.487Z,15.49
2022-10-01T23:40:20.955Z,15.48
2022-10-01T23:43:19.754Z,15.49
2022-10-01T23:45:55.338Z,15.49
2022-10-01T23:48:32.041Z,15.49
2022-10-01T23:51:14.843Z,15.49
2022-10-01T23:54:08.722Z,15.45
2022-10-01T23:56:51.504Z,15.41
2022-10-01T23:59:28.051Z,15.39
